sensor_id;sensor_type;location;lat;lon;timestamp;P1;durP1;ratioP1;P2;durP2;ratioP2
31730;SDS011;18310;55.586;12.286;2023-11-19T00:02:54;5.38;;;1.55;;
31730;SDS011;18310;55.586;12.286;2023-11-19T00:06:03;3.58;;;1.20;;
31730;SDS011;18310;55.586;12.286;2023-11-19T00:09:10;2.75;;;1.30;;
31730;SDS011;18310;55.586;12.286;2023-11-19T00:12:16;2.22;;;1.20;;
31730;SDS011;18310;55.586;12.286;2023-11-19T00:15:21;3.33;;;1.38;;
31730;SDS011;18310;55.586;12.286;2023-11-19T00:18:26;5.28;;;1.48;;
31730;SDS011;18310;55.586;12.286;2023-11-19T00:24:39;5.38;;;1.70;;
31730;SDS011;18310;55.586;12.286;2023-11-19T00:27:46;3.42;;;1.48;;
31730;SDS011;18310;55.586;12.286;2023-11-19T00:30:52;4.65;;;1.95;;
31730;SDS011;18310;55.586;12.286;2023-11-19T00:33:57;4.78;;;2.10;;
31730;SDS011;18310;55.586;12.286;2023-11-19T00:37:05;3.70;;;1.50;;
31730;SDS011;18310;55.586;12.286;2023-11-19T00:40:12;4.13;;;1.70;;
31730;SDS011;18310;55.586;12.286;2023-11-19T00:43:23;6.63;;;2.25;;
31730;SDS011;18310;55.586;12.286;2023-11-19T00:46:28;6.00;;;2.47;;
31730;SDS011;18310;55.586;12.286;2023-11-19T00:49:34;5.10;;;2.08;;
31730;SDS011;18310;55.586;12.286;2023-11-19T00:52:40;6.50;;;2.60;;
31730;SDS011;18310;55.586;12.286;2023-11-19T00:55:45;5.10;;;2.20;;
31730;SDS011;18310;55.586;12.286;2023-11-19T01:02:15;6.95;;;3.08;;
31730;SDS011;18310;55.586;12.286;2023-11-19T01:05:19;7.50;;;2.92;;
31730;SDS011;18310;55.586;12.286;2023-11-19T01:08:26;5.47;;;2.97;;
31730;SDS011;18310;55.586;12.286;2023-11-19T01:11:30;5.90;;;3.00;;
31730;SDS011;18310;55.586;12.286;2023-11-19T01:14:34;5.05;;;2.78;;
31730;SDS011;18310;55.586;12.286;2023-11-19T01:20:52;9.27;;;3.50;;
31730;SDS011;18310;55.586;12.286;2023-11-19T01:24:00;10.50;;;3.25;;
31730;SDS011;18310;55.586;12.286;2023-11-19T01:27:07;5.00;;;2.72;;
31730;SDS011;18310;55.586;12.286;2023-11-19T01:30:13;6.78;;;2.92;;
31730;SDS011;18310;55.586;12.286;2023-11-19T01:33:19;7.45;;;3.45;;
31730;SDS011;18310;55.586;12.286;2023-11-19T01:36:24;5.72;;;3.05;;
31730;SDS011;18310;55.586;12.286;2023-11-19T01:39:31;7.35;;;3.67;;
31730;SDS011;18310;55.586;12.286;2023-11-19T01:42:36;6.88;;;3.55;;
31730;SDS011;18310;55.586;12.286;2023-11-19T01:46:23;8.63;;;3.47;;
31730;SDS011;18310;55.586;12.286;2023-11-19T01:49:29;9.52;;;3.45;;
31730;SDS011;18310;55.586;12.286;2023-11-19T01:52:35;10.48;;;3.20;;
31730;SDS011;18310;55.586;12.286;2023-11-19T01:55:40;10.43;;;3.63;;
31730;SDS011;18310;55.586;12.286;2023-11-19T01:58:45;8.52;;;3.88;;
31730;SDS011;18310;55.586;12.286;2023-11-19T02:01:52;8.52;;;4.40;;
31730;SDS011;18310;55.586;12.286;2023-11-19T02:05:03;7.65;;;4.30;;
31730;SDS011;18310;55.586;12.286;2023-11-19T02:08:08;6.50;;;3.78;;
31730;SDS011;18310;55.586;12.286;2023-11-19T02:11:14;6.20;;;3.80;;
31730;SDS011;18310;55.586;12.286;2023-11-19T02:14:25;5.63;;;3.08;;
31730;SDS011;18310;55.586;12.286;2023-11-19T02:17:39;7.72;;;3.40;;
31730;SDS011;18310;55.586;12.286;2023-11-19T02:20:48;6.55;;;3.22;;
31730;SDS011;18310;55.586;12.286;2023-11-19T02:23:53;8.13;;;3.35;;
31730;SDS011;18310;55.586;12.286;2023-11-19T02:27:10;7.43;;;3.50;;
31730;SDS011;18310;55.586;12.286;2023-11-19T02:30:21;13.27;;;3.50;;
31730;SDS011;18310;55.586;12.286;2023-11-19T02:33:29;9.43;;;3.58;;
31730;SDS011;18310;55.586;12.286;2023-11-19T02:36:34;8.48;;;3.30;;
31730;SDS011;18310;55.586;12.286;2023-11-19T02:39:39;9.95;;;3.63;;
31730;SDS011;18310;55.586;12.286;2023-11-19T02:42:51;6.47;;;2.88;;
31730;SDS011;18310;55.586;12.286;2023-11-19T02:45:57;8.25;;;2.75;;
31730;SDS011;18310;55.586;12.286;2023-11-19T02:49:01;9.38;;;3.15;;
31730;SDS011;18310;55.586;12.286;2023-11-19T02:55:13;8.10;;;3.20;;
31730;SDS011;18310;55.586;12.286;2023-11-19T02:58:18;7.15;;;3.15;;
31730;SDS011;18310;55.586;12.286;2023-11-19T03:01:29;8.30;;;3.20;;
31730;SDS011;18310;55.586;12.286;2023-11-19T03:04:35;5.93;;;2.80;;
31730;SDS011;18310;55.586;12.286;2023-11-19T03:07:43;5.35;;;2.47;;
31730;SDS011;18310;55.586;12.286;2023-11-19T03:10:49;11.35;;;3.00;;
31730;SDS011;18310;55.586;12.286;2023-11-19T03:13:55;5.13;;;2.63;;
31730;SDS011;18310;55.586;12.286;2023-11-19T03:17:02;4.90;;;2.47;;
31730;SDS011;18310;55.586;12.286;2023-11-19T03:20:09;6.68;;;2.92;;
31730;SDS011;18310;55.586;12.286;2023-11-19T03:23:18;6.20;;;2.60;;
31730;SDS011;18310;55.586;12.286;2023-11-19T03:26:22;7.68;;;3.40;;
31730;SDS011;18310;55.586;12.286;2023-11-19T03:29:26;6.10;;;2.70;;
31730;SDS011;18310;55.586;12.286;2023-11-19T03:32:32;5.78;;;2.85;;
31730;SDS011;18310;55.586;12.286;2023-11-19T03:35:37;4.40;;;2.65;;
31730;SDS011;18310;55.586;12.286;2023-11-19T03:38:43;7.18;;;2.90;;
31730;SDS011;18310;55.586;12.286;2023-11-19T03:44:51;7.33;;;2.43;;
31730;SDS011;18310;55.586;12.286;2023-11-19T03:47:59;6.65;;;2.55;;
31730;SDS011;18310;55.586;12.286;2023-11-19T03:51:03;4.13;;;1.75;;
31730;SDS011;18310;55.586;12.286;2023-11-19T03:54:07;6.22;;;2.70;;
31730;SDS011;18310;55.586;12.286;2023-11-19T04:00:16;4.97;;;1.42;;
31730;SDS011;18310;55.586;12.286;2023-11-19T04:03:25;8.40;;;2.00;;
31730;SDS011;18310;55.586;12.286;2023-11-19T04:06:29;5.40;;;1.75;;
31730;SDS011;18310;55.586;12.286;2023-11-19T04:09:35;4.35;;;1.08;;
31730;SDS011;18310;55.586;12.286;2023-11-19T04:12:40;3.05;;;1.02;;
31730;SDS011;18310;55.586;12.286;2023-11-19T04:15:45;5.55;;;1.50;;
31730;SDS011;18310;55.586;12.286;2023-11-19T04:24:58;3.58;;;1.33;;
31730;SDS011;18310;55.586;12.286;2023-11-19T04:31:06;4.50;;;1.30;;
31730;SDS011;18310;55.586;12.286;2023-11-19T04:34:13;7.13;;;1.52;;
31730;SDS011;18310;55.586;12.286;2023-11-19T04:37:17;3.78;;;1.65;;
31730;SDS011;18310;55.586;12.286;2023-11-19T04:40:21;3.05;;;1.02;;
31730;SDS011;18310;55.586;12.286;2023-11-19T04:43:26;4.07;;;0.73;;
31730;SDS011;18310;55.586;12.286;2023-11-19T04:46:29;3.05;;;0.82;;
31730;SDS011;18310;55.586;12.286;2023-11-19T04:52:51;5.57;;;1.08;;
31730;SDS011;18310;55.586;12.286;2023-11-19T04:56:07;3.17;;;1.52;;
31730;SDS011;18310;55.586;12.286;2023-11-19T04:59:14;2.67;;;0.82;;
31730;SDS011;18310;55.586;12.286;2023-11-19T05:02:18;2.95;;;0.60;;
31730;SDS011;18310;55.586;12.286;2023-11-19T05:05:25;3.28;;;1.17;;
31730;SDS011;18310;55.586;12.286;2023-11-19T05:08:29;6.00;;;1.05;;
31730;SDS011;18310;55.586;12.286;2023-11-19T05:11:35;7.25;;;1.40;;
31730;SDS011;18310;55.586;12.286;2023-11-19T05:14:53;6.93;;;1.10;;
31730;SDS011;18310;55.586;12.286;2023-11-19T05:17:59;3.28;;;1.38;;
31730;SDS011;18310;55.586;12.286;2023-11-19T05:21:07;7.32;;;1.55;;
31730;SDS011;18310;55.586;12.286;2023-11-19T05:24:12;5.18;;;1.33;;
31730;SDS011;18310;55.586;12.286;2023-11-19T05:27:16;4.32;;;1.55;;
31730;SDS011;18310;55.586;12.286;2023-11-19T05:30:21;6.20;;;1.98;;
31730;SDS011;18310;55.586;12.286;2023-11-19T05:33:27;5.25;;;1.35;;
31730;SDS011;18310;55.586;12.286;2023-11-19T05:36:34;7.03;;;1.70;;
31730;SDS011;18310;55.586;12.286;2023-11-19T05:39:38;4.78;;;1.42;;
31730;SDS011;18310;55.586;12.286;2023-11-19T05:42:44;6.40;;;1.90;;
31730;SDS011;18310;55.586;12.286;2023-11-19T05:45:48;6.05;;;2.05;;
31730;SDS011;18310;55.586;12.286;2023-11-19T05:48:53;5.57;;;2.00;;
31730;SDS011;18310;55.586;12.286;2023-11-19T05:51:58;9.10;;;2.38;;
31730;SDS011;18310;55.586;12.286;2023-11-19T05:55:05;6.03;;;2.45;;
31730;SDS011;18310;55.586;12.286;2023-11-19T05:58:12;3.97;;;1.83;;
31730;SDS011;18310;55.586;12.286;2023-11-19T06:01:17;6.40;;;2.28;;
31730;SDS011;18310;55.586;12.286;2023-11-19T06:07:28;9.20;;;3.00;;
31730;SDS011;18310;55.586;12.286;2023-11-19T06:10:33;10.80;;;3.38;;
31730;SDS011;18310;55.586;12.286;2023-11-19T06:13:42;8.48;;;2.95;;
31730;SDS011;18310;55.586;12.286;2023-11-19T06:16:48;6.97;;;3.08;;
31730;SDS011;18310;55.586;12.286;2023-11-19T06:19:54;9.30;;;3.42;;
31730;SDS011;18310;55.586;12.286;2023-11-19T06:23:01;10.63;;;3.47;;
31730;SDS011;18310;55.586;12.286;2023-11-19T06:26:06;5.90;;;3.08;;
31730;SDS011;18310;55.586;12.286;2023-11-19T06:29:11;10.80;;;4.28;;
31730;SDS011;18310;55.586;12.286;2023-11-19T06:32:20;7.55;;;2.95;;
31730;SDS011;18310;55.586;12.286;2023-11-19T06:38:30;6.90;;;3.47;;
31730;SDS011;18310;55.586;12.286;2023-11-19T06:41:34;9.82;;;3.97;;
31730;SDS011;18310;55.586;12.286;2023-11-19T06:44:41;7.78;;;3.53;;
31730;SDS011;18310;55.586;12.286;2023-11-19T06:47:52;9.95;;;3.80;;
31730;SDS011;18310;55.586;12.286;2023-11-19T06:54:02;7.68;;;3.30;;
31730;SDS011;18310;55.586;12.286;2023-11-19T06:57:08;7.60;;;2.70;;
31730;SDS011;18310;55.586;12.286;2023-11-19T07:00:35;10.93;;;3.05;;
31730;SDS011;18310;55.586;12.286;2023-11-19T07:03:40;7.97;;;2.85;;
31730;SDS011;18310;55.586;12.286;2023-11-19T07:09:50;10.38;;;3.35;;
31730;SDS011;18310;55.586;12.286;2023-11-19T07:12:54;8.93;;;2.72;;
31730;SDS011;18310;55.586;12.286;2023-11-19T07:19:04;6.18;;;2.20;;
31730;SDS011;18310;55.586;12.286;2023-11-19T07:22:09;6.38;;;2.13;;
31730;SDS011;18310;55.586;12.286;2023-11-19T07:25:14;6.18;;;1.73;;
31730;SDS011;18310;55.586;12.286;2023-11-19T07:28:19;6.82;;;2.40;;
31730;SDS011;18310;55.586;12.286;2023-11-19T07:31:28;6.75;;;2.67;;
31730;SDS011;18310;55.586;12.286;2023-11-19T07:34:32;4.18;;;1.83;;
31730;SDS011;18310;55.586;12.286;2023-11-19T07:37:36;9.13;;;2.58;;
31730;SDS011;18310;55.586;12.286;2023-11-19T07:40:42;8.73;;;2.67;;
31730;SDS011;18310;55.586;12.286;2023-11-19T07:43:58;8.10;;;1.90;;
31730;SDS011;18310;55.586;12.286;2023-11-19T07:47:05;5.22;;;1.83;;
31730;SDS011;18310;55.586;12.286;2023-11-19T07:50:10;8.68;;;1.90;;
31730;SDS011;18310;55.586;12.286;2023-11-19T07:53:19;9.98;;;1.55;;
31730;SDS011;18310;55.586;12.286;2023-11-19T07:56:24;9.15;;;1.65;;
31730;SDS011;18310;55.586;12.286;2023-11-19T07:59:29;5.20;;;1.40;;
31730;SDS011;18310;55.586;12.286;2023-11-19T08:02:38;5.93;;;1.15;;
31730;SDS011;18310;55.586;12.286;2023-11-19T08:05:43;7.88;;;1.48;;
31730;SDS011;18310;55.586;12.286;2023-11-19T08:08:50;3.17;;;1.00;;
31730;SDS011;18310;55.586;12.286;2023-11-19T08:11:54;8.10;;;1.70;;
31730;SDS011;18310;55.586;12.286;2023-11-19T08:14:59;3.35;;;1.15;;
31730;SDS011;18310;55.586;12.286;2023-11-19T08:18:06;4.80;;;1.30;;
31730;SDS011;18310;55.586;12.286;2023-11-19T08:21:12;6.45;;;1.70;;
31730;SDS011;18310;55.586;12.286;2023-11-19T08:24:17;4.03;;;1.13;;
31730;SDS011;18310;55.586;12.286;2023-11-19T08:27:25;3.88;;;1.42;;
31730;SDS011;18310;55.586;12.286;2023-11-19T08:30:30;5.88;;;1.48;;
31730;SDS011;18310;55.586;12.286;2023-11-19T08:33:37;7.57;;;1.20;;
31730;SDS011;18310;55.586;12.286;2023-11-19T08:36:43;3.55;;;1.10;;
31730;SDS011;18310;55.586;12.286;2023-11-19T08:39:56;6.43;;;1.05;;
31730;SDS011;18310;55.586;12.286;2023-11-19T08:43:00;5.82;;;1.40;;
31730;SDS011;18310;55.586;12.286;2023-11-19T08:46:09;5.45;;;0.98;;
31730;SDS011;18310;55.586;12.286;2023-11-19T08:49:16;3.22;;;1.27;;
31730;SDS011;18310;55.586;12.286;2023-11-19T08:52:20;5.88;;;0.95;;
31730;SDS011;18310;55.586;12.286;2023-11-19T08:55:26;9.05;;;0.88;;
31730;SDS011;18310;55.586;12.286;2023-11-19T09:00:44;1.52;;;0.57;;
31730;SDS011;18310;55.586;12.286;2023-11-19T09:03:48;3.25;;;0.93;;
31730;SDS011;18310;55.586;12.286;2023-11-19T09:06:53;4.88;;;0.98;;
31730;SDS011;18310;55.586;12.286;2023-11-19T09:13:01;4.32;;;0.70;;
31730;SDS011;18310;55.586;12.286;2023-11-19T09:16:08;3.42;;;0.75;;
31730;SDS011;18310;55.586;12.286;2023-11-19T09:19:12;5.50;;;0.90;;
31730;SDS011;18310;55.586;12.286;2023-11-19T09:22:16;4.72;;;0.70;;
31730;SDS011;18310;55.586;12.286;2023-11-19T09:25:21;3.55;;;0.63;;
31730;SDS011;18310;55.586;12.286;2023-11-19T09:28:28;5.28;;;0.95;;
31730;SDS011;18310;55.586;12.286;2023-11-19T09:31:37;7.38;;;1.00;;
31730;SDS011;18310;55.586;12.286;2023-11-19T09:34:43;5.97;;;0.85;;
31730;SDS011;18310;55.586;12.286;2023-11-19T09:37:54;1.75;;;0.50;;
31730;SDS011;18310;55.586;12.286;2023-11-19T09:41:03;2.78;;;0.60;;
31730;SDS011;18310;55.586;12.286;2023-11-19T09:44:13;3.35;;;0.80;;
31730;SDS011;18310;55.586;12.286;2023-11-19T09:47:22;4.63;;;0.68;;
31730;SDS011;18310;55.586;12.286;2023-11-19T09:50:46;5.88;;;1.10;;
31730;SDS011;18310;55.586;12.286;2023-11-19T09:53:51;3.88;;;1.00;;
31730;SDS011;18310;55.586;12.286;2023-11-19T09:56:57;6.47;;;1.05;;
31730;SDS011;18310;55.586;12.286;2023-11-19T10:00:06;3.00;;;0.80;;
31730;SDS011;18310;55.586;12.286;2023-11-19T10:03:16;5.47;;;1.27;;
31730;SDS011;18310;55.586;12.286;2023-11-19T10:06:52;7.85;;;1.08;;
31730;SDS011;18310;55.586;12.286;2023-11-19T10:09:57;5.75;;;1.23;;
31730;SDS011;18310;55.586;12.286;2023-11-19T10:13:01;5.65;;;0.90;;
31730;SDS011;18310;55.586;12.286;2023-11-19T10:22:13;5.50;;;1.33;;
31730;SDS011;18310;55.586;12.286;2023-11-19T10:25:21;3.78;;;0.68;;
31730;SDS011;18310;55.586;12.286;2023-11-19T10:32:43;8.27;;;0.80;;
31730;SDS011;18310;55.586;12.286;2023-11-19T10:36:57;4.22;;;0.73;;
31730;SDS011;18310;55.586;12.286;2023-11-19T10:43:08;3.83;;;0.60;;
31730;SDS011;18310;55.586;12.286;2023-11-19T10:46:12;4.43;;;0.90;;
31730;SDS011;18310;55.586;12.286;2023-11-19T10:49:22;5.68;;;0.80;;
31730;SDS011;18310;55.586;12.286;2023-11-19T10:52:25;4.20;;;1.10;;
31730;SDS011;18310;55.586;12.286;2023-11-19T10:55:30;3.10;;;0.73;;
31730;SDS011;18310;55.586;12.286;2023-11-19T10:58:36;3.17;;;1.17;;
31730;SDS011;18310;55.586;12.286;2023-11-19T11:01:43;2.05;;;0.50;;
31730;SDS011;18310;55.586;12.286;2023-11-19T11:04:47;4.68;;;0.90;;
31730;SDS011;18310;55.586;12.286;2023-11-19T11:07:55;3.10;;;0.73;;
31730;SDS011;18310;55.586;12.286;2023-11-19T11:10:59;3.47;;;0.65;;
31730;SDS011;18310;55.586;12.286;2023-11-19T11:14:04;3.60;;;0.60;;
31730;SDS011;18310;55.586;12.286;2023-11-19T11:17:08;3.22;;;0.60;;
31730;SDS011;18310;55.586;12.286;2023-11-19T11:20:14;2.47;;;0.50;;
31730;SDS011;18310;55.586;12.286;2023-11-19T11:23:23;2.97;;;0.70;;
31730;SDS011;18310;55.586;12.286;2023-11-19T11:26:45;4.68;;;0.68;;
31730;SDS011;18310;55.586;12.286;2023-11-19T11:30:02;2.92;;;0.32;;
31730;SDS011;18310;55.586;12.286;2023-11-19T11:33:25;1.10;;;0.35;;
31730;SDS011;18310;55.586;12.286;2023-11-19T11:36:37;5.55;;;0.50;;
31730;SDS011;18310;55.586;12.286;2023-11-19T11:39:51;3.97;;;0.50;;
31730;SDS011;18310;55.586;12.286;2023-11-19T11:42:55;1.67;;;0.50;;
31730;SDS011;18310;55.586;12.286;2023-11-19T11:46:00;3.42;;;0.70;;
31730;SDS011;18310;55.586;12.286;2023-11-19T11:49:06;3.95;;;0.40;;
31730;SDS011;18310;55.586;12.286;2023-11-19T11:52:09;3.25;;;0.52;;
31730;SDS011;18310;55.586;12.286;2023-11-19T11:55:16;2.47;;;0.45;;
31730;SDS011;18310;55.586;12.286;2023-11-19T11:58:19;1.57;;;0.30;;
31730;SDS011;18310;55.586;12.286;2023-11-19T12:01:25;3.80;;;0.80;;
31730;SDS011;18310;55.586;12.286;2023-11-19T12:04:29;2.50;;;0.57;;
31730;SDS011;18310;55.586;12.286;2023-11-19T12:07:33;2.28;;;0.80;;
31730;SDS011;18310;55.586;12.286;2023-11-19T12:10:43;2.40;;;0.80;;
31730;SDS011;18310;55.586;12.286;2023-11-19T12:13:53;4.90;;;0.50;;
31730;SDS011;18310;55.586;12.286;2023-11-19T12:17:04;3.53;;;0.65;;
31730;SDS011;18310;55.586;12.286;2023-11-19T12:20:40;3.28;;;0.65;;
31730;SDS011;18310;55.586;12.286;2023-11-19T12:23:46;2.83;;;0.65;;
31730;SDS011;18310;55.586;12.286;2023-11-19T12:26:52;2.70;;;0.43;;
31730;SDS011;18310;55.586;12.286;2023-11-19T12:29:56;2.17;;;0.50;;
31730;SDS011;18310;55.586;12.286;2023-11-19T12:33:07;5.67;;;0.67;;
31730;SDS011;18310;55.586;12.286;2023-11-19T12:36:11;1.92;;;0.68;;
31730;SDS011;18310;55.586;12.286;2023-11-19T12:39:14;2.25;;;0.80;;
31730;SDS011;18310;55.586;12.286;2023-11-19T12:42:17;5.95;;;1.00;;
31730;SDS011;18310;55.586;12.286;2023-11-19T12:45:20;4.87;;;0.73;;
31730;SDS011;18310;55.586;12.286;2023-11-19T12:48:27;2.38;;;0.70;;
31730;SDS011;18310;55.586;12.286;2023-11-19T12:51:30;2.85;;;0.60;;
31730;SDS011;18310;55.586;12.286;2023-11-19T12:54:34;2.42;;;0.70;;
31730;SDS011;18310;55.586;12.286;2023-11-19T12:57:39;1.58;;;0.50;;
31730;SDS011;18310;55.586;12.286;2023-11-19T13:00:42;6.60;;;1.35;;
31730;SDS011;18310;55.586;12.286;2023-11-19T13:03:47;4.63;;;0.38;;
31730;SDS011;18310;55.586;12.286;2023-11-19T13:06:53;2.90;;;0.75;;
31730;SDS011;18310;55.586;12.286;2023-11-19T13:10:01;4.78;;;0.75;;
31730;SDS011;18310;55.586;12.286;2023-11-19T13:13:05;5.07;;;0.70;;
31730;SDS011;18310;55.586;12.286;2023-11-19T13:16:10;2.15;;;0.50;;
31730;SDS011;18310;55.586;12.286;2023-11-19T13:19:14;2.30;;;0.50;;
31730;SDS011;18310;55.586;12.286;2023-11-19T13:22:20;4.05;;;0.70;;
31730;SDS011;18310;55.586;12.286;2023-11-19T13:25:24;2.50;;;0.63;;
31730;SDS011;18310;55.586;12.286;2023-11-19T13:28:27;6.60;;;0.93;;
31730;SDS011;18310;55.586;12.286;2023-11-19T13:31:30;2.30;;;0.60;;
31730;SDS011;18310;55.586;12.286;2023-11-19T13:34:35;5.70;;;0.70;;
31730;SDS011;18310;55.586;12.286;2023-11-19T13:37:39;3.97;;;1.00;;
31730;SDS011;18310;55.586;12.286;2023-11-19T13:40:42;2.40;;;0.73;;
31730;SDS011;18310;55.586;12.286;2023-11-19T13:43:45;5.20;;;1.27;;
31730;SDS011;18310;55.586;12.286;2023-11-19T13:46:48;4.72;;;0.85;;
31730;SDS011;18310;55.586;12.286;2023-11-19T13:49:53;1.92;;;0.73;;
31730;SDS011;18310;55.586;12.286;2023-11-19T13:52:56;3.50;;;0.68;;
31730;SDS011;18310;55.586;12.286;2023-11-19T13:55:59;4.20;;;0.90;;
31730;SDS011;18310;55.586;12.286;2023-11-19T13:59:03;2.25;;;0.60;;
31730;SDS011;18310;55.586;12.286;2023-11-19T14:02:06;3.67;;;0.70;;
31730;SDS011;18310;55.586;12.286;2023-11-19T14:05:10;3.55;;;0.73;;
31730;SDS011;18310;55.586;12.286;2023-11-19T14:08:14;3.20;;;0.70;;
31730;SDS011;18310;55.586;12.286;2023-11-19T14:11:26;4.50;;;0.60;;
31730;SDS011;18310;55.586;12.286;2023-11-19T14:14:29;3.05;;;0.57;;
31730;SDS011;18310;55.586;12.286;2023-11-19T14:17:33;2.33;;;0.68;;
31730;SDS011;18310;55.586;12.286;2023-11-19T14:20:38;8.43;;;1.00;;
31730;SDS011;18310;55.586;12.286;2023-11-19T14:23:41;3.40;;;0.80;;
31730;SDS011;18310;55.586;12.286;2023-11-19T14:26:45;3.72;;;0.80;;
31730;SDS011;18310;55.586;12.286;2023-11-19T14:29:48;2.83;;;0.60;;
31730;SDS011;18310;55.586;12.286;2023-11-19T14:32:52;5.80;;;1.00;;
31730;SDS011;18310;55.586;12.286;2023-11-19T14:35:57;3.50;;;0.87;;
31730;SDS011;18310;55.586;12.286;2023-11-19T14:39:00;7.18;;;1.13;;
31730;SDS011;18310;55.586;12.286;2023-11-19T14:42:05;3.22;;;0.98;;
31730;SDS011;18310;55.586;12.286;2023-11-19T14:45:10;4.93;;;1.23;;
31730;SDS011;18310;55.586;12.286;2023-11-19T14:48:14;3.42;;;1.23;;
31730;SDS011;18310;55.586;12.286;2023-11-19T14:51:19;4.30;;;0.90;;
31730;SDS011;18310;55.586;12.286;2023-11-19T14:54:22;3.97;;;0.95;;
31730;SDS011;18310;55.586;12.286;2023-11-19T14:57:26;4.10;;;0.90;;
31730;SDS011;18310;55.586;12.286;2023-11-19T15:00:29;7.80;;;0.90;;
31730;SDS011;18310;55.586;12.286;2023-11-19T15:03:33;4.82;;;0.95;;
31730;SDS011;18310;55.586;12.286;2023-11-19T15:06:57;1.83;;;0.60;;
31730;SDS011;18310;55.586;12.286;2023-11-19T15:10:14;2.33;;;0.90;;
31730;SDS011;18310;55.586;12.286;2023-11-19T15:13:17;2.85;;;1.15;;
31730;SDS011;18310;55.586;12.286;2023-11-19T15:16:21;4.22;;;0.98;;
31730;SDS011;18310;55.586;12.286;2023-11-19T15:19:32;3.30;;;1.00;;
31730;SDS011;18310;55.586;12.286;2023-11-19T15:22:36;2.35;;;0.80;;
31730;SDS011;18310;55.586;12.286;2023-11-19T15:25:40;3.63;;;0.80;;
31730;SDS011;18310;55.586;12.286;2023-11-19T15:28:43;6.65;;;0.90;;
31730;SDS011;18310;55.586;12.286;2023-11-19T15:31:47;3.75;;;0.82;;
31730;SDS011;18310;55.586;12.286;2023-11-19T15:34:50;3.90;;;0.80;;
31730;SDS011;18310;55.586;12.286;2023-11-19T15:37:54;3.28;;;0.80;;
31730;SDS011;18310;55.586;12.286;2023-11-19T15:41:00;4.55;;;0.95;;
31730;SDS011;18310;55.586;12.286;2023-11-19T15:44:04;12.63;;;1.45;;
31730;SDS011;18310;55.586;12.286;2023-11-19T15:47:07;5.20;;;0.95;;
31730;SDS011;18310;55.586;12.286;2023-11-19T15:50:14;5.90;;;0.95;;
31730;SDS011;18310;55.586;12.286;2023-11-19T15:53:19;2.78;;;0.95;;
31730;SDS011;18310;55.586;12.286;2023-11-19T15:56:23;2.33;;;0.80;;
31730;SDS011;18310;55.586;12.286;2023-11-19T15:59:27;6.07;;;0.68;;
31730;SDS011;18310;55.586;12.286;2023-11-19T16:02:30;3.78;;;0.90;;
31730;SDS011;18310;55.586;12.286;2023-11-19T16:05:33;3.17;;;1.05;;
31730;SDS011;18310;55.586;12.286;2023-11-19T16:08:37;2.37;;;0.90;;
31730;SDS011;18310;55.586;12.286;2023-11-19T16:11:42;4.38;;;0.80;;
31730;SDS011;18310;55.586;12.286;2023-11-19T16:14:57;5.75;;;1.02;;
31730;SDS011;18310;55.586;12.286;2023-11-19T16:18:01;5.03;;;0.90;;
31730;SDS011;18310;55.586;12.286;2023-11-19T16:21:04;3.40;;;0.95;;
31730;SDS011;18310;55.586;12.286;2023-11-19T16:24:08;2.42;;;0.82;;
31730;SDS011;18310;55.586;12.286;2023-11-19T16:27:13;2.80;;;1.20;;
31730;SDS011;18310;55.586;12.286;2023-11-19T16:30:19;4.40;;;1.20;;
31730;SDS011;18310;55.586;12.286;2023-11-19T16:36:31;6.32;;;1.00;;
31730;SDS011;18310;55.586;12.286;2023-11-19T16:39:35;4.37;;;1.30;;
31730;SDS011;18310;55.586;12.286;2023-11-19T16:42:39;2.23;;;0.70;;
31730;SDS011;18310;55.586;12.286;2023-11-19T16:45:43;5.18;;;1.13;;
31730;SDS011;18310;55.586;12.286;2023-11-19T16:48:47;2.88;;;0.70;;
31730;SDS011;18310;55.586;12.286;2023-11-19T16:51:50;5.15;;;1.15;;
31730;SDS011;18310;55.586;12.286;2023-11-19T16:54:54;6.55;;;1.55;;
31730;SDS011;18310;55.586;12.286;2023-11-19T16:57:59;9.80;;;5.40;;
31730;SDS011;18310;55.586;12.286;2023-11-19T17:01:04;4.32;;;0.90;;
31730;SDS011;18310;55.586;12.286;2023-11-19T17:04:07;9.77;;;1.30;;
31730;SDS011;18310;55.586;12.286;2023-11-19T17:07:11;3.28;;;1.08;;
31730;SDS011;18310;55.586;12.286;2023-11-19T17:10:14;4.03;;;1.40;;
31730;SDS011;18310;55.586;12.286;2023-11-19T17:13:19;3.53;;;1.30;;
31730;SDS011;18310;55.586;12.286;2023-11-19T17:16:23;6.78;;;1.58;;
31730;SDS011;18310;55.586;12.286;2023-11-19T17:19:27;5.15;;;1.70;;
31730;SDS011;18310;55.586;12.286;2023-11-19T17:22:31;4.17;;;1.37;;
31730;SDS011;18310;55.586;12.286;2023-11-19T17:25:36;3.22;;;0.95;;
31730;SDS011;18310;55.586;12.286;2023-11-19T17:28:44;5.60;;;1.23;;
31730;SDS011;18310;55.586;12.286;2023-11-19T17:31:47;5.10;;;1.85;;
31730;SDS011;18310;55.586;12.286;2023-11-19T17:34:51;6.43;;;1.37;;
31730;SDS011;18310;55.586;12.286;2023-11-19T17:37:55;4.57;;;1.40;;
31730;SDS011;18310;55.586;12.286;2023-11-19T17:40:58;4.37;;;1.43;;
31730;SDS011;18310;55.586;12.286;2023-11-19T17:44:03;4.03;;;1.13;;
31730;SDS011;18310;55.586;12.286;2023-11-19T17:47:06;4.53;;;1.13;;
31730;SDS011;18310;55.586;12.286;2023-11-19T17:50:10;3.15;;;1.63;;
31730;SDS011;18310;55.586;12.286;2023-11-19T17:53:16;4.88;;;1.85;;
31730;SDS011;18310;55.586;12.286;2023-11-19T17:56:19;7.13;;;2.30;;
31730;SDS011;18310;55.586;12.286;2023-11-19T17:59:24;5.30;;;1.98;;
31730;SDS011;18310;55.586;12.286;2023-11-19T18:02:27;4.85;;;1.80;;
31730;SDS011;18310;55.586;12.286;2023-11-19T18:05:33;3.30;;;1.88;;
31730;SDS011;18310;55.586;12.286;2023-11-19T18:08:36;3.58;;;1.70;;
31730;SDS011;18310;55.586;12.286;2023-11-19T18:11:40;6.13;;;2.23;;
31730;SDS011;18310;55.586;12.286;2023-11-19T18:14:44;3.97;;;2.28;;
31730;SDS011;18310;55.586;12.286;2023-11-19T18:17:55;4.45;;;2.28;;
31730;SDS011;18310;55.586;12.286;2023-11-19T18:20:59;4.90;;;2.40;;
31730;SDS011;18310;55.586;12.286;2023-11-19T18:24:03;4.60;;;2.20;;
31730;SDS011;18310;55.586;12.286;2023-11-19T18:27:08;5.25;;;2.88;;
31730;SDS011;18310;55.586;12.286;2023-11-19T18:30:13;7.93;;;2.67;;
31730;SDS011;18310;55.586;12.286;2023-11-19T18:33:18;9.43;;;3.13;;
31730;SDS011;18310;55.586;12.286;2023-11-19T18:38:06;4.82;;;2.83;;
31730;SDS011;18310;55.586;12.286;2023-11-19T18:41:09;5.82;;;3.00;;
31730;SDS011;18310;55.586;12.286;2023-11-19T18:44:15;7.32;;;3.25;;
31730;SDS011;18310;55.586;12.286;2023-11-19T18:47:18;9.30;;;3.53;;
31730;SDS011;18310;55.586;12.286;2023-11-19T18:50:21;7.17;;;3.40;;
31730;SDS011;18310;55.586;12.286;2023-11-19T18:53:26;6.00;;;3.47;;
31730;SDS011;18310;55.586;12.286;2023-11-19T18:56:30;8.43;;;3.28;;
31730;SDS011;18310;55.586;12.286;2023-11-19T18:59:33;6.43;;;3.40;;
31730;SDS011;18310;55.586;12.286;2023-11-19T19:04:31;6.85;;;3.40;;
31730;SDS011;18310;55.586;12.286;2023-11-19T19:07:35;6.47;;;3.60;;
31730;SDS011;18310;55.586;12.286;2023-11-19T19:10:39;6.93;;;3.47;;
31730;SDS011;18310;55.586;12.286;2023-11-19T19:13:42;6.07;;;3.25;;
31730;SDS011;18310;55.586;12.286;2023-11-19T19:16:45;8.45;;;3.55;;
31730;SDS011;18310;55.586;12.286;2023-11-19T19:19:50;7.07;;;3.87;;
31730;SDS011;18310;55.586;12.286;2023-11-19T19:22:54;13.82;;;4.03;;
31730;SDS011;18310;55.586;12.286;2023-11-19T19:25:57;5.37;;;3.20;;
31730;SDS011;18310;55.586;12.286;2023-11-19T19:29:00;6.53;;;3.10;;
31730;SDS011;18310;55.586;12.286;2023-11-19T19:32:04;7.57;;;3.58;;
31730;SDS011;18310;55.586;12.286;2023-11-19T19:35:09;6.40;;;3.53;;
31730;SDS011;18310;55.586;12.286;2023-11-19T19:38:12;7.85;;;3.53;;